sensor_id;sensor_type;location;lat;lon;timestamp;P1;durP1;ratioP1;P2;durP2;ratioP2
64923;SDS011;51436;44.692;39.214;2022-11-02T00:00:30;6.90;;;3.28;;
64923;SDS011;51436;44.692;39.214;2022-11-02T00:02:58;5.10;;;3.25;;
64923;SDS011;51436;44.692;39.214;2022-11-02T00:05:24;5.63;;;2.50;;
64923;SDS011;51436;44.692;39.214;2022-11-02T00:07:52;5.85;;;2.60;;
64923;SDS011;51436;44.692;39.214;2022-11-02T00:10:19;4.70;;;2.70;;
64923;SDS011;51436;44.692;39.214;2022-11-02T00:12:46;6.22;;;2.47;;
64923;SDS011;51436;44.692;39.214;2022-11-02T00:15:13;3.63;;;1.70;;
64923;SDS011;51436;44.692;39.214;2022-11-02T00:17:41;4.53;;;2.20;;
64923;SDS011;51436;44.692;39.214;2022-11-02T00:20:12;4.47;;;1.80;;
64923;SDS011;51436;44.692;39.214;2022-11-02T00:22:40;3.75;;;1.70;;
64923;SDS011;51436;44.692;39.214;2022-11-02T00:25:09;4.88;;;2.40;;
64923;SDS011;51436;44.692;39.214;2022-11-02T00:27:37;2.22;;;1.60;;
64923;SDS011;51436;44.692;39.214;2022-11-02T00:30:07;2.90;;;1.80;;
64923;SDS011;51436;44.692;39.214;2022-11-02T00:32:34;3.40;;;2.33;;
64923;SDS011;51436;44.692;39.214;2022-11-02T00:35:01;7.90;;;2.22;;
64923;SDS011;51436;44.692;39.214;2022-11-02T00:37:27;8.38;;;2.13;;
64923;SDS011;51436;44.692;39.214;2022-11-02T00:39:54;8.05;;;2.67;;
64923;SDS011;51436;44.692;39.214;2022-11-02T00:42:20;5.50;;;2.45;;
64923;SDS011;51436;44.692;39.214;2022-11-02T00:44:46;5.30;;;2.05;;
64923;SDS011;51436;44.692;39.214;2022-11-02T00:47:13;8.23;;;3.72;;
64923;SDS011;51436;44.692;39.214;2022-11-02T00:49:39;14.68;;;3.25;;
64923;SDS011;51436;44.692;39.214;2022-11-02T00:52:07;7.35;;;4.15;;
64923;SDS011;51436;44.692;39.214;2022-11-02T00:54:34;7.97;;;5.10;;
64923;SDS011;51436;44.692;39.214;2022-11-02T00:57:00;8.60;;;4.07;;
64923;SDS011;51436;44.692;39.214;2022-11-02T00:59:27;9.27;;;4.57;;
64923;SDS011;51436;44.692;39.214;2022-11-02T01:01:55;6.55;;;3.75;;
64923;SDS011;51436;44.692;39.214;2022-11-02T01:04:21;10.57;;;4.93;;
64923;SDS011;51436;44.692;39.214;2022-11-02T01:06:48;6.50;;;3.75;;
64923;SDS011;51436;44.692;39.214;2022-11-02T01:09:14;14.07;;;4.07;;
64923;SDS011;51436;44.692;39.214;2022-11-02T01:11:40;5.20;;;3.00;;
64923;SDS011;51436;44.692;39.214;2022-11-02T01:14:08;5.18;;;2.90;;
64923;SDS011;51436;44.692;39.214;2022-11-02T01:16:37;5.93;;;3.13;;
64923;SDS011;51436;44.692;39.214;2022-11-02T01:19:06;9.07;;;3.03;;
64923;SDS011;51436;44.692;39.214;2022-11-02T01:21:32;3.65;;;2.25;;
64923;SDS011;51436;44.692;39.214;2022-11-02T01:24:01;5.07;;;1.63;;
64923;SDS011;51436;44.692;39.214;2022-11-02T01:26:30;6.32;;;2.35;;
64923;SDS011;51436;44.692;39.214;2022-11-02T01:28:56;3.38;;;1.88;;
64923;SDS011;51436;44.692;39.214;2022-11-02T01:31:22;2.65;;;2.05;;
64923;SDS011;51436;44.692;39.214;2022-11-02T01:33:49;2.83;;;1.75;;
64923;SDS011;51436;44.692;39.214;2022-11-02T01:36:16;2.33;;;1.70;;
64923;SDS011;51436;44.692;39.214;2022-11-02T01:38:46;3.30;;;2.03;;
64923;SDS011;51436;44.692;39.214;2022-11-02T01:41:14;6.95;;;2.80;;
64923;SDS011;51436;44.692;39.214;2022-11-02T01:43:45;6.35;;;2.85;;
64923;SDS011;51436;44.692;39.214;2022-11-02T01:46:15;2.63;;;1.90;;
64923;SDS011;51436;44.692;39.214;2022-11-02T01:49:12;6.63;;;2.70;;
64923;SDS011;51436;44.692;39.214;2022-11-02T01:51:42;6.32;;;2.92;;
64923;SDS011;51436;44.692;39.214;2022-11-02T01:54:18;4.35;;;2.80;;
64923;SDS011;51436;44.692;39.214;2022-11-02T01:56:49;5.10;;;3.25;;
64923;SDS011;51436;44.692;39.214;2022-11-02T01:59:21;6.60;;;2.25;;
64923;SDS011;51436;44.692;39.214;2022-11-02T02:01:52;2.97;;;1.85;;
64923;SDS011;51436;44.692;39.214;2022-11-02T02:04:19;3.17;;;2.20;;
64923;SDS011;51436;44.692;39.214;2022-11-02T02:06:46;9.27;;;3.03;;
64923;SDS011;51436;44.692;39.214;2022-11-02T02:09:17;4.15;;;2.50;;
64923;SDS011;51436;44.692;39.214;2022-11-02T02:11:46;5.70;;;2.78;;
64923;SDS011;51436;44.692;39.214;2022-11-02T02:14:14;12.05;;;3.28;;
64923;SDS011;51436;44.692;39.214;2022-11-02T02:31:28;4.40;;;1.60;;
64923;SDS011;51436;44.692;39.214;2022-11-02T02:34:18;3.90;;;1.98;;
64923;SDS011;51436;44.692;39.214;2022-11-02T02:36:57;5.28;;;1.50;;
64923;SDS011;51436;44.692;39.214;2022-11-02T02:39:42;1.52;;;1.13;;
64923;SDS011;51436;44.692;39.214;2022-11-02T02:44:53;6.95;;;1.20;;
64923;SDS011;51436;44.692;39.214;2022-11-02T02:47:29;1.55;;;1.23;;
64923;SDS011;51436;44.692;39.214;2022-11-02T02:50:06;20.67;;;1.73;;
64923;SDS011;51436;44.692;39.214;2022-11-02T02:52:54;2.10;;;1.45;;
64923;SDS011;51436;44.692;39.214;2022-11-02T02:55:30;2.15;;;1.33;;
64923;SDS011;51436;44.692;39.214;2022-11-02T02:58:01;1.55;;;0.70;;
64923;SDS011;51436;44.692;39.214;2022-11-02T03:00:29;1.10;;;1.05;;
64923;SDS011;51436;44.692;39.214;2022-11-02T03:02:59;7.60;;;1.60;;
64923;SDS011;51436;44.692;39.214;2022-11-02T03:08:11;8.32;;;3.10;;
64923;SDS011;51436;44.692;39.214;2022-11-02T03:10:42;7.85;;;3.13;;
64923;SDS011;51436;44.692;39.214;2022-11-02T03:19:10;11.93;;;3.80;;
64923;SDS011;51436;44.692;39.214;2022-11-02T03:21:43;9.05;;;3.28;;
64923;SDS011;51436;44.692;39.214;2022-11-02T03:24:18;7.85;;;2.55;;
64923;SDS011;51436;44.692;39.214;2022-11-02T03:27:14;9.82;;;3.35;;
64923;SDS011;51436;44.692;39.214;2022-11-02T03:35:46;5.07;;;1.75;;
64923;SDS011;51436;44.692;39.214;2022-11-02T03:38:36;2.70;;;2.08;;
64923;SDS011;51436;44.692;39.214;2022-11-02T03:41:14;14.35;;;3.85;;
64923;SDS011;51436;44.692;39.214;2022-11-02T03:43:44;5.47;;;2.95;;
64923;SDS011;51436;44.692;39.214;2022-11-02T03:46:28;6.95;;;3.28;;
64923;SDS011;51436;44.692;39.214;2022-11-02T03:48:59;7.13;;;2.47;;
64923;SDS011;51436;44.692;39.214;2022-11-02T03:51:43;10.30;;;2.78;;
64923;SDS011;51436;44.692;39.214;2022-11-02T03:56:54;4.50;;;2.55;;
64923;SDS011;51436;44.692;39.214;2022-11-02T03:59:24;6.43;;;2.55;;
64923;SDS011;51436;44.692;39.214;2022-11-02T04:01:55;5.60;;;2.78;;
64923;SDS011;51436;44.692;39.214;2022-11-02T04:04:22;7.68;;;3.40;;
64923;SDS011;51436;44.692;39.214;2022-11-02T04:06:49;6.88;;;3.65;;
64923;SDS011;51436;44.692;39.214;2022-11-02T04:09:17;5.40;;;3.25;;
64923;SDS011;51436;44.692;39.214;2022-11-02T04:11:44;6.63;;;3.55;;
64923;SDS011;51436;44.692;39.214;2022-11-02T04:14:31;8.00;;;3.90;;
64923;SDS011;51436;44.692;39.214;2022-11-02T04:17:09;7.82;;;3.17;;
64923;SDS011;51436;44.692;39.214;2022-11-02T04:19:55;10.60;;;3.72;;
64923;SDS011;51436;44.692;39.214;2022-11-02T04:22:23;14.02;;;3.72;;
64923;SDS011;51436;44.692;39.214;2022-11-02T04:25:13;17.92;;;3.53;;
64923;SDS011;51436;44.692;39.214;2022-11-02T04:27:47;6.85;;;3.90;;
64923;SDS011;51436;44.692;39.214;2022-11-02T04:30:21;8.52;;;3.80;;
64923;SDS011;51436;44.692;39.214;2022-11-02T04:32:51;4.22;;;3.10;;
64923;SDS011;51436;44.692;39.214;2022-11-02T04:35:43;6.05;;;3.22;;
64923;SDS011;51436;44.692;39.214;2022-11-02T04:38:10;6.78;;;3.10;;
64923;SDS011;51436;44.692;39.214;2022-11-02T04:40:58;5.78;;;3.10;;
64923;SDS011;51436;44.692;39.214;2022-11-02T04:43:47;8.88;;;3.22;;
64923;SDS011;51436;44.692;39.214;2022-11-02T04:46:15;9.90;;;3.40;;
64923;SDS011;51436;44.692;39.214;2022-11-02T04:48:42;7.10;;;3.33;;
64923;SDS011;51436;44.692;39.214;2022-11-02T04:51:10;4.13;;;2.88;;
64923;SDS011;51436;44.692;39.214;2022-11-02T04:53:37;30.92;;;12.20;;
64923;SDS011;51436;44.692;39.214;2022-11-02T04:56:06;29.05;;;13.02;;
64923;SDS011;51436;44.692;39.214;2022-11-02T04:58:33;23.35;;;10.77;;
64923;SDS011;51436;44.692;39.214;2022-11-02T05:01:20;23.10;;;11.18;;
64923;SDS011;51436;44.692;39.214;2022-11-02T05:03:51;25.65;;;12.02;;
64923;SDS011;51436;44.692;39.214;2022-11-02T05:06:23;22.75;;;10.77;;
64923;SDS011;51436;44.692;39.214;2022-11-02T05:08:51;28.95;;;11.35;;
64923;SDS011;51436;44.692;39.214;2022-11-02T05:11:18;29.65;;;13.07;;
64923;SDS011;51436;44.692;39.214;2022-11-02T05:13:47;26.50;;;13.40;;
64923;SDS011;51436;44.692;39.214;2022-11-02T05:16:15;43.80;;;16.27;;
64923;SDS011;51436;44.692;39.214;2022-11-02T05:18:42;38.60;;;18.13;;
64923;SDS011;51436;44.692;39.214;2022-11-02T05:21:10;41.28;;;16.98;;
64923;SDS011;51436;44.692;39.214;2022-11-02T05:23:37;40.05;;;17.50;;
64923;SDS011;51436;44.692;39.214;2022-11-02T05:26:05;37.83;;;17.70;;
64923;SDS011;51436;44.692;39.214;2022-11-02T05:31:04;37.70;;;17.70;;
64923;SDS011;51436;44.692;39.214;2022-11-02T05:33:33;33.72;;;15.90;;
64923;SDS011;51436;44.692;39.214;2022-11-02T05:36:06;39.70;;;16.40;;
64923;SDS011;51436;44.692;39.214;2022-11-02T05:38:37;31.63;;;15.57;;
64923;SDS011;51436;44.692;39.214;2022-11-02T05:41:03;31.27;;;15.63;;
64923;SDS011;51436;44.692;39.214;2022-11-02T05:43:34;43.42;;;15.75;;
64923;SDS011;51436;44.692;39.214;2022-11-02T05:46:03;41.13;;;15.50;;
64923;SDS011;51436;44.692;39.214;2022-11-02T05:48:30;30.55;;;13.88;;
64923;SDS011;51436;44.692;39.214;2022-11-02T05:50:58;31.63;;;14.80;;
64923;SDS011;51436;44.692;39.214;2022-11-02T05:53:27;28.75;;;12.70;;
64923;SDS011;51436;44.692;39.214;2022-11-02T05:55:59;27.17;;;11.93;;
64923;SDS011;51436;44.692;39.214;2022-11-02T05:58:26;29.13;;;13.15;;
64923;SDS011;51436;44.692;39.214;2022-11-02T06:00:53;26.20;;;12.18;;
64923;SDS011;51436;44.692;39.214;2022-11-02T06:03:23;39.42;;;13.40;;
64923;SDS011;51436;44.692;39.214;2022-11-02T06:06:10;28.75;;;11.15;;
64923;SDS011;51436;44.692;39.214;2022-11-02T06:08:37;30.65;;;11.85;;
64923;SDS011;51436;44.692;39.214;2022-11-02T06:11:06;30.65;;;11.30;;
64923;SDS011;51436;44.692;39.214;2022-11-02T06:13:34;35.72;;;14.50;;
64923;SDS011;51436;44.692;39.214;2022-11-02T06:16:01;47.83;;;18.60;;
64923;SDS011;51436;44.692;39.214;2022-11-02T06:18:30;75.38;;;22.88;;
64923;SDS011;51436;44.692;39.214;2022-11-02T06:20:57;49.25;;;22.95;;
64923;SDS011;51436;44.692;39.214;2022-11-02T06:23:24;61.67;;;17.20;;
64923;SDS011;51436;44.692;39.214;2022-11-02T06:25:52;41.53;;;17.70;;
64923;SDS011;51436;44.692;39.214;2022-11-02T06:28:20;40.78;;;18.10;;
64923;SDS011;51436;44.692;39.214;2022-11-02T06:30:48;37.35;;;16.83;;
64923;SDS011;51436;44.692;39.214;2022-11-02T06:33:20;42.78;;;17.52;;
64923;SDS011;51436;44.692;39.214;2022-11-02T06:35:47;39.38;;;15.07;;
64923;SDS011;51436;44.692;39.214;2022-11-02T06:38:15;30.85;;;13.02;;
64923;SDS011;51436;44.692;39.214;2022-11-02T06:43:32;15.38;;;5.57;;
64923;SDS011;51436;44.692;39.214;2022-11-02T06:46:01;10.13;;;5.53;;
64923;SDS011;51436;44.692;39.214;2022-11-02T06:48:27;11.98;;;5.40;;
64923;SDS011;51436;44.692;39.214;2022-11-02T06:50:54;13.68;;;4.97;;
64923;SDS011;51436;44.692;39.214;2022-11-02T06:53:21;12.30;;;5.88;;
64923;SDS011;51436;44.692;39.214;2022-11-02T06:55:51;15.18;;;7.25;;
64923;SDS011;51436;44.692;39.214;2022-11-02T06:58:18;12.55;;;6.13;;
64923;SDS011;51436;44.692;39.214;2022-11-02T07:00:45;12.00;;;4.72;;
64923;SDS011;51436;44.692;39.214;2022-11-02T07:03:11;9.43;;;4.93;;
64923;SDS011;51436;44.692;39.214;2022-11-02T07:05:39;9.48;;;4.22;;
64923;SDS011;51436;44.692;39.214;2022-11-02T07:08:08;14.02;;;4.20;;
64923;SDS011;51436;44.692;39.214;2022-11-02T07:10:34;6.85;;;2.72;;
64923;SDS011;51436;44.692;39.214;2022-11-02T07:13:01;6.85;;;3.00;;
64923;SDS011;51436;44.692;39.214;2022-11-02T07:15:28;259.55;;;68.93;;
64923;SDS011;51436;44.692;39.214;2022-11-02T07:17:54;3.50;;;2.20;;
64923;SDS011;51436;44.692;39.214;2022-11-02T07:20:20;12.27;;;3.45;;
64923;SDS011;51436;44.692;39.214;2022-11-02T07:22:56;11.07;;;4.43;;
64923;SDS011;51436;44.692;39.214;2022-11-02T07:36:45;8.88;;;3.90;;
64923;SDS011;51436;44.692;39.214;2022-11-02T07:39:11;10.07;;;4.60;;
64923;SDS011;51436;44.692;39.214;2022-11-02T07:41:38;19.85;;;4.93;;
64923;SDS011;51436;44.692;39.214;2022-11-02T07:44:04;12.57;;;5.90;;
64923;SDS011;51436;44.692;39.214;2022-11-02T07:46:32;10.80;;;5.55;;
64923;SDS011;51436;44.692;39.214;2022-11-02T07:48:58;8.75;;;3.97;;
64923;SDS011;51436;44.692;39.214;2022-11-02T07:51:25;7.30;;;4.32;;
64923;SDS011;51436;44.692;39.214;2022-11-02T07:53:51;7.60;;;3.58;;
64923;SDS011;51436;44.692;39.214;2022-11-02T07:56:18;6.43;;;3.28;;
64923;SDS011;51436;44.692;39.214;2022-11-02T07:58:44;5.55;;;1.90;;
64923;SDS011;51436;44.692;39.214;2022-11-02T08:01:11;4.45;;;1.25;;
64923;SDS011;51436;44.692;39.214;2022-11-02T08:03:37;3.25;;;1.33;;
64923;SDS011;51436;44.692;39.214;2022-11-02T08:06:03;5.07;;;1.33;;
64923;SDS011;51436;44.692;39.214;2022-11-02T08:08:30;1.58;;;1.48;;
64923;SDS011;51436;44.692;39.214;2022-11-02T08:11:01;2.40;;;1.15;;
64923;SDS011;51436;44.692;39.214;2022-11-02T08:13:30;2.15;;;1.20;;
64923;SDS011;51436;44.692;39.214;2022-11-02T08:15:56;1.67;;;1.02;;
64923;SDS011;51436;44.692;39.214;2022-11-02T08:18:23;3.15;;;1.48;;
64923;SDS011;51436;44.692;39.214;2022-11-02T08:20:53;1.75;;;1.17;;
64923;SDS011;51436;44.692;39.214;2022-11-02T08:23:20;1.55;;;1.17;;
64923;SDS011;51436;44.692;39.214;2022-11-02T08:25:48;0.98;;;0.70;;
64923;SDS011;51436;44.692;39.214;2022-11-02T08:28:17;1.38;;;0.73;;
64923;SDS011;51436;44.692;39.214;2022-11-02T08:30:45;0.52;;;0.52;;
64923;SDS011;51436;44.692;39.214;2022-11-02T08:33:12;0.55;;;0.40;;
64923;SDS011;51436;44.692;39.214;2022-11-02T08:35:40;0.88;;;0.60;;
64923;SDS011;51436;44.692;39.214;2022-11-02T08:38:08;0.50;;;0.50;;
64923;SDS011;51436;44.692;39.214;2022-11-02T08:40:35;2.42;;;0.90;;
64923;SDS011;51436;44.692;39.214;2022-11-02T08:43:09;3.25;;;0.68;;
64923;SDS011;51436;44.692;39.214;2022-11-02T08:45:38;0.63;;;0.50;;
64923;SDS011;51436;44.692;39.214;2022-11-02T08:48:05;3.85;;;1.00;;
64923;SDS011;51436;44.692;39.214;2022-11-02T08:50:32;2.63;;;0.95;;
64923;SDS011;51436;44.692;39.214;2022-11-02T08:52:59;5.78;;;0.60;;
64923;SDS011;51436;44.692;39.214;2022-11-02T08:55:26;3.80;;;0.73;;
64923;SDS011;51436;44.692;39.214;2022-11-02T08:57:53;1.02;;;0.40;;
64923;SDS011;51436;44.692;39.214;2022-11-02T09:00:22;4.25;;;0.38;;
64923;SDS011;51436;44.692;39.214;2022-11-02T09:03:09;1.45;;;0.43;;
64923;SDS011;51436;44.692;39.214;2022-11-02T09:05:38;0.47;;;0.43;;
64923;SDS011;51436;44.692;39.214;2022-11-02T09:08:09;0.80;;;0.80;;
64923;SDS011;51436;44.692;39.214;2022-11-02T09:10:37;2.42;;;0.77;;
64923;SDS011;51436;44.692;39.214;2022-11-02T09:13:05;2.15;;;0.70;;
64923;SDS011;51436;44.692;39.214;2022-11-02T09:15:33;0.55;;;0.55;;
64923;SDS011;51436;44.692;39.214;2022-11-02T09:18:01;1.60;;;0.52;;
64923;SDS011;51436;44.692;39.214;2022-11-02T09:20:28;1.35;;;0.73;;
64923;SDS011;51436;44.692;39.214;2022-11-02T09:22:54;1.95;;;0.60;;
64923;SDS011;51436;44.692;39.214;2022-11-02T09:25:21;0.52;;;0.52;;
64923;SDS011;51436;44.692;39.214;2022-11-02T09:27:51;0.95;;;0.77;;
64923;SDS011;51436;44.692;39.214;2022-11-02T09:30:19;0.85;;;0.45;;
64923;SDS011;51436;44.692;39.214;2022-11-02T09:32:52;0.45;;;0.45;;
64923;SDS011;51436;44.692;39.214;2022-11-02T09:35:20;2.72;;;0.65;;
64923;SDS011;51436;44.692;39.214;2022-11-02T09:37:46;2.38;;;1.02;;
64923;SDS011;51436;44.692;39.214;2022-11-02T09:40:13;6.72;;;1.10;;
64923;SDS011;51436;44.692;39.214;2022-11-02T09:45:26;3.08;;;0.90;;
64923;SDS011;51436;44.692;39.214;2022-11-02T09:48:10;0.70;;;0.70;;
64923;SDS011;51436;44.692;39.214;2022-11-02T09:50:54;0.47;;;0.47;;
64923;SDS011;51436;44.692;39.214;2022-11-02T09:53:23;0.95;;;0.70;;
64923;SDS011;51436;44.692;39.214;2022-11-02T09:55:58;4.50;;;0.68;;
64923;SDS011;51436;44.692;39.214;2022-11-02T09:58:29;6.88;;;1.08;;
64923;SDS011;51436;44.692;39.214;2022-11-02T10:01:13;0.50;;;0.50;;
64923;SDS011;51436;44.692;39.214;2022-11-02T10:03:55;1.58;;;0.60;;
64923;SDS011;51436;44.692;39.214;2022-11-02T10:06:50;1.05;;;0.70;;
64923;SDS011;51436;44.692;39.214;2022-11-02T10:10:02;0.73;;;0.55;;
64923;SDS011;51436;44.692;39.214;2022-11-02T10:13:05;0.77;;;0.70;;
64923;SDS011;51436;44.692;39.214;2022-11-02T10:18:23;1.25;;;0.50;;
64923;SDS011;51436;44.692;39.214;2022-11-02T10:20:52;1.05;;;0.63;;
64923;SDS011;51436;44.692;39.214;2022-11-02T10:26:02;5.30;;;0.55;;
64923;SDS011;51436;44.692;39.214;2022-11-02T10:28:32;3.20;;;0.52;;
64923;SDS011;51436;44.692;39.214;2022-11-02T10:31:01;1.40;;;0.68;;
64923;SDS011;51436;44.692;39.214;2022-11-02T10:33:28;1.48;;;0.68;;
64923;SDS011;51436;44.692;39.214;2022-11-02T10:44:03;0.82;;;0.63;;
64923;SDS011;51436;44.692;39.214;2022-11-02T10:47:02;6.70;;;1.17;;
64923;SDS011;51436;44.692;39.214;2022-11-02T10:52:45;0.65;;;0.43;;
64923;SDS011;51436;44.692;39.214;2022-11-02T10:55:16;2.88;;;0.25;;
64923;SDS011;51436;44.692;39.214;2022-11-02T10:58:02;1.33;;;0.52;;
64923;SDS011;51436;44.692;39.214;2022-11-02T11:00:32;16.25;;;0.80;;
64923;SDS011;51436;44.692;39.214;2022-11-02T11:03:07;0.73;;;0.40;;
64923;SDS011;51436;44.692;39.214;2022-11-02T11:05:50;0.50;;;0.50;;
64923;SDS011;51436;44.692;39.214;2022-11-02T11:11:08;4.45;;;0.50;;
64923;SDS011;51436;44.692;39.214;2022-11-02T11:13:36;0.30;;;0.30;;
64923;SDS011;51436;44.692;39.214;2022-11-02T11:16:02;1.35;;;0.30;;
64923;SDS011;51436;44.692;39.214;2022-11-02T11:18:30;8.25;;;0.60;;
64923;SDS011;51436;44.692;39.214;2022-11-02T11:20:57;1.13;;;0.52;;
64923;SDS011;51436;44.692;39.214;2022-11-02T11:23:25;0.70;;;0.70;;
64923;SDS011;51436;44.692;39.214;2022-11-02T11:26:02;6.38;;;0.50;;
64923;SDS011;51436;44.692;39.214;2022-11-02T11:28:37;1.20;;;0.63;;
64923;SDS011;51436;44.692;39.214;2022-11-02T11:33:33;2.45;;;0.60;;
64923;SDS011;51436;44.692;39.214;2022-11-02T11:36:09;0.98;;;0.47;;
64923;SDS011;51436;44.692;39.214;2022-11-02T11:38:45;0.45;;;0.45;;
64923;SDS011;51436;44.692;39.214;2022-11-02T11:41:13;5.55;;;0.55;;
64923;SDS011;51436;44.692;39.214;2022-11-02T11:43:40;0.50;;;0.50;;
64923;SDS011;51436;44.692;39.214;2022-11-02T11:46:07;1.67;;;0.80;;
64923;SDS011;51436;44.692;39.214;2022-11-02T11:48:37;2.30;;;0.90;;
64923;SDS011;51436;44.692;39.214;2022-11-02T11:56:38;1.73;;;1.08;;
64923;SDS011;51436;44.692;39.214;2022-11-02T11:59:15;0.77;;;0.70;;
64923;SDS011;51436;44.692;39.214;2022-11-02T12:01:45;0.80;;;0.80;;
64923;SDS011;51436;44.692;39.214;2022-11-02T12:04:12;2.05;;;0.98;;
64923;SDS011;51436;44.692;39.214;2022-11-02T12:06:51;1.67;;;0.88;;
64923;SDS011;51436;44.692;39.214;2022-11-02T12:12:36;1.63;;;0.88;;
64923;SDS011;51436;44.692;39.214;2022-11-02T12:18:29;2.22;;;1.00;;
64923;SDS011;51436;44.692;39.214;2022-11-02T12:21:04;0.57;;;0.55;;
64923;SDS011;51436;44.692;39.214;2022-11-02T12:24:00;2.03;;;0.70;;
64923;SDS011;51436;44.692;39.214;2022-11-02T12:38:35;1.85;;;0.90;;
64923;SDS011;51436;44.692;39.214;2022-11-02T12:44:05;0.73;;;0.73;;
64923;SDS011;51436;44.692;39.214;2022-11-02T12:46:42;1.58;;;0.80;;
64923;SDS011;51436;44.692;39.214;2022-11-02T12:52:04;0.93;;;0.57;;
64923;SDS011;51436;44.692;39.214;2022-11-02T12:54:45;0.75;;;0.75;;
64923;SDS011;51436;44.692;39.214;2022-11-02T12:57:14;0.70;;;0.70;;
64923;SDS011;51436;44.692;39.214;2022-11-02T13:00:06;4.15;;;1.17;;
64923;SDS011;51436;44.692;39.214;2022-11-02T13:05:38;0.68;;;0.68;;
64923;SDS011;51436;44.692;39.214;2022-11-02T13:08:15;2.38;;;0.98;;
64923;SDS011;51436;44.692;39.214;2022-11-02T13:10:47;2.38;;;1.20;;
64923;SDS011;51436;44.692;39.214;2022-11-02T13:16:14;1.55;;;0.80;;
64923;SDS011;51436;44.692;39.214;2022-11-02T13:18:45;2.75;;;0.80;;
64923;SDS011;51436;44.692;39.214;2022-11-02T13:21:15;3.08;;;2.05;;
64923;SDS011;51436;44.692;39.214;2022-11-02T13:23:49;2.50;;;1.98;;
64923;SDS011;51436;44.692;39.214;2022-11-02T13:29:14;0.95;;;0.90;;
64923;SDS011;51436;44.692;39.214;2022-11-02T13:34:56;1.27;;;1.10;;
64923;SDS011;51436;44.692;39.214;2022-11-02T13:45:34;2.60;;;1.17;;
64923;SDS011;51436;44.692;39.214;2022-11-02T13:50:43;3.55;;;1.35;;
64923;SDS011;51436;44.692;39.214;2022-11-02T13:53:17;1.55;;;1.10;;
64923;SDS011;51436;44.692;39.214;2022-11-02T13:55:57;1.20;;;1.00;;
64923;SDS011;51436;44.692;39.214;2022-11-02T13:58:34;0.93;;;0.93;;
64923;SDS011;51436;44.692;39.214;2022-11-02T14:01:04;3.75;;;1.60;;
64923;SDS011;51436;44.692;39.214;2022-11-02T14:03:51;5.97;;;1.70;;
64923;SDS011;51436;44.692;39.214;2022-11-02T14:06:22;0.82;;;0.82;;
64923;SDS011;51436;44.692;39.214;2022-11-02T14:08:54;7.35;;;1.00;;
64923;SDS011;51436;44.692;39.214;2022-11-02T14:11:23;6.03;;;0.80;;
64923;SDS011;51436;44.692;39.214;2022-11-02T14:20:14;2.17;;;1.08;;
64923;SDS011;51436;44.692;39.214;2022-11-02T14:22:13;1.20;;;1.00;;
64923;SDS011;51436;44.692;39.214;2022-11-02T14:40:23;2.00;;;1.00;;
64923;SDS011;51436;44.692;39.214;2022-11-02T14:48:14;1.45;;;1.02;;
64923;SDS011;51436;44.692;39.214;2022-11-02T14:50:57;1.60;;;0.98;;
64923;SDS011;51436;44.692;39.214;2022-11-02T14:53:30;3.55;;;1.55;;
64923;SDS011;51436;44.692;39.214;2022-11-02T14:55:59;1.95;;;1.23;;
64923;SDS011;51436;44.692;39.214;2022-11-02T14:58:32;2.58;;;1.02;;
64923;SDS011;51436;44.692;39.214;2022-11-02T15:01:04;3.30;;;1.63;;
64923;SDS011;51436;44.692;39.214;2022-11-02T15:03:37;5.35;;;1.42;;
64923;SDS011;51436;44.692;39.214;2022-11-02T15:06:21;1.65;;;1.15;;
64923;SDS011;51436;44.692;39.214;2022-11-02T15:19:43;1.50;;;1.30;;
64923;SDS011;51436;44.692;39.214;2022-11-02T15:25:28;5.53;;;1.90;;
64923;SDS011;51436;44.692;39.214;2022-11-02T15:28:33;4.38;;;1.88;;
64923;SDS011;51436;44.692;39.214;2022-11-02T15:30:55;6.43;;;1.70;;
64923;SDS011;51436;44.692;39.214;2022-11-02T15:33:58;8.50;;;1.80;;
64923;SDS011;51436;44.692;39.214;2022-11-02T15:36:35;2.08;;;1.40;;
64923;SDS011;51436;44.692;39.214;2022-11-02T15:39:06;1.60;;;1.15;;
64923;SDS011;51436;44.692;39.214;2022-11-02T15:42:00;2.35;;;1.73;;
64923;SDS011;51436;44.692;39.214;2022-11-02T15:56:33;2.53;;;1.90;;
64923;SDS011;51436;44.692;39.214;2022-11-02T15:59:54;3.08;;;1.38;;
64923;SDS011;51436;44.692;39.214;2022-11-02T16:02:11;1.30;;;1.13;;
64923;SDS011;51436;44.692;39.214;2022-11-02T16:04:54;1.70;;;0.82;;
64923;SDS011;51436;44.692;39.214;2022-11-02T16:07:27;1.17;;;0.77;;
64923;SDS011;51436;44.692;39.214;2022-11-02T16:10:09;1.02;;;0.90;;
64923;SDS011;51436;44.692;39.214;2022-11-02T16:12:57;6.00;;;0.95;;
64923;SDS011;51436;44.692;39.214;2022-11-02T16:18:25;2.17;;;1.27;;
64923;SDS011;51436;44.692;39.214;2022-11-02T16:20:55;6.45;;;1.52;;
64923;SDS011;51436;44.692;39.214;2022-11-02T16:23:27;2.63;;;1.50;;
64923;SDS011;51436;44.692;39.214;2022-11-02T16:25:56;4.70;;;1.65;;
64923;SDS011;51436;44.692;39.214;2022-11-02T16:28:28;1.88;;;1.75;;
64923;SDS011;51436;44.692;39.214;2022-11-02T16:31:06;4.65;;;1.50;;
64923;SDS011;51436;44.692;39.214;2022-11-02T16:36:18;6.10;;;1.67;;
64923;SDS011;51436;44.692;39.214;2022-11-02T16:38:50;3.55;;;2.00;;
64923;SDS011;51436;44.692;39.214;2022-11-02T16:41:29;2.75;;;1.58;;
64923;SDS011;51436;44.692;39.214;2022-11-02T16:44:10;1.23;;;1.10;;
64923;SDS011;51436;44.692;39.214;2022-11-02T16:49:23;2.17;;;0.93;;
64923;SDS011;51436;44.692;39.214;2022-11-02T16:51:52;1.55;;;0.60;;
64923;SDS011;51436;44.692;39.214;2022-11-02T16:56:53;3.05;;;1.00;;
64923;SDS011;51436;44.692;39.214;2022-11-02T16:59:24;1.80;;;1.55;;
64923;SDS011;51436;44.692;39.214;2022-11-02T17:01:53;2.38;;;1.65;;
64923;SDS011;51436;44.692;39.214;2022-11-02T17:07:41;2.13;;;1.08;;
64923;SDS011;51436;44.692;39.214;2022-11-02T17:10:18;4.85;;;1.13;;
64923;SDS011;51436;44.692;39.214;2022-11-02T17:12:48;2.03;;;1.10;;
64923;SDS011;51436;44.692;39.214;2022-11-02T17:15:17;3.38;;;0.60;;
64923;SDS011;51436;44.692;39.214;2022-11-02T17:17:46;2.53;;;0.95;;
64923;SDS011;51436;44.692;39.214;2022-11-02T17:22:50;1.58;;;1.13;;
64923;SDS011;51436;44.692;39.214;2022-11-02T17:25:32;1.80;;;0.80;;
64923;SDS011;51436;44.692;39.214;2022-11-02T17:30:59;0.80;;;0.80;;
64923;SDS011;51436;44.692;39.214;2022-11-02T17:33:29;1.25;;;0.90;;
64923;SDS011;51436;44.692;39.214;2022-11-02T17:36:04;3.40;;;0.90;;
64923;SDS011;51436;44.692;39.214;2022-11-02T17:38:32;2.53;;;1.27;;
64923;SDS011;51436;44.692;39.214;2022-11-02T17:40:59;1.55;;;0.82;;
64923;SDS011;51436;44.692;39.214;2022-11-02T17:43:26;6.60;;;1.20;;
64923;SDS011;51436;44.692;39.214;2022-11-02T17:45:58;1.95;;;0.80;;
64923;SDS011;51436;44.692;39.214;2022-11-02T17:48:26;3.47;;;0.73;;
64923;SDS011;51436;44.692;39.214;2022-11-02T17:50:56;1.30;;;1.05;;
64923;SDS011;51436;44.692;39.214;2022-11-02T17:53:26;4.10;;;0.90;;
64923;SDS011;51436;44.692;39.214;2022-11-02T17:55:53;4.50;;;1.08;;
64923;SDS011;51436;44.692;39.214;2022-11-02T17:58:20;2.30;;;1.30;;
64923;SDS011;51436;44.692;39.214;2022-11-02T18:00:46;1.80;;;1.00;;
64923;SDS011;51436;44.692;39.214;2022-11-02T18:03:26;1.42;;;1.02;;
64923;SDS011;51436;44.692;39.214;2022-11-02T18:05:53;1.73;;;1.35;;
64923;SDS011;51436;44.692;39.214;2022-11-02T18:08:21;1.13;;;1.02;;
64923;SDS011;51436;44.692;39.214;2022-11-02T18:10:50;2.67;;;1.08;;
64923;SDS011;51436;44.692;39.214;2022-11-02T18:13:18;2.40;;;1.60;;
64923;SDS011;51436;44.692;39.214;2022-11-02T18:15:47;3.63;;;1.67;;
64923;SDS011;51436;44.692;39.214;2022-11-02T18:18:22;4.28;;;2.10;;